sensor_id;sensor_type;location;lat;lon;timestamp;pressure;altitude;pressure_sealevel;temperature;humidity
42859;BME280;28505;56.970;40.998;2023-03-22T00:00:28;99165.34;;;2.46;100.00
42859;BME280;28505;56.970;40.998;2023-03-22T00:05:56;99153.31;;;2.33;100.00
42859;BME280;28505;56.970;40.998;2023-03-22T00:11:20;99173.03;;;2.38;100.00
42859;BME280;28505;56.970;40.998;2023-03-22T00:16:42;99185.19;;;2.28;100.00
42859;BME280;28505;56.970;40.998;2023-03-22T00:22:06;99194.25;;;2.27;100.00
42859;BME280;28505;56.970;40.998;2023-03-22T00:27:30;99185.38;;;2.11;100.00
42859;BME280;28505;56.970;40.998;2023-03-22T00:32:52;99204.72;;;2.02;100.00
42859;BME280;28505;56.970;40.998;2023-03-22T00:38:14;99205.03;;;1.73;100.00
42859;BME280;28505;56.970;40.998;2023-03-22T00:43:36;99239.28;;;1.70;100.00
42859;BME280;28505;56.970;40.998;2023-03-22T00:48:58;99233.25;;;1.47;100.00
42859;BME280;28505;56.970;40.998;2023-03-22T00:54:21;99211.47;;;1.23;100.00
42859;BME280;28505;56.970;40.998;2023-03-22T00:59:43;99267.31;;;1.28;100.00
42859;BME280;28505;56.970;40.998;2023-03-22T01:05:06;99287.38;;;1.19;100.00
42859;BME280;28505;56.970;40.998;2023-03-22T01:10:29;99292.56;;;1.09;100.00
42859;BME280;28505;56.970;40.998;2023-03-22T01:15:52;99298.78;;;0.98;100.00
42859;BME280;28505;56.970;40.998;2023-03-22T01:21:14;99319.16;;;0.92;100.00
42859;BME280;28505;56.970;40.998;2023-03-22T01:26:42;99322.41;;;0.77;100.00
42859;BME280;28505;56.970;40.998;2023-03-22T01:32:04;99328.28;;;0.79;100.00
42859;BME280;28505;56.970;40.998;2023-03-22T01:37:27;99345.03;;;0.85;100.00
42859;BME280;28505;56.970;40.998;2023-03-22T01:42:51;99344.69;;;0.76;100.00
42859;BME280;28505;56.970;40.998;2023-03-22T01:48:29;99365.97;;;0.81;100.00
42859;BME280;28505;56.970;40.998;2023-03-22T01:53:58;99347.34;;;0.59;100.00
42859;BME280;28505;56.970;40.998;2023-03-22T01:59:23;99380.94;;;0.54;100.00
42859;BME280;28505;56.970;40.998;2023-03-22T02:05:02;99402.22;;;0.42;100.00
42859;BME280;28505;56.970;40.998;2023-03-22T02:10:26;99399.66;;;0.30;100.00
42859;BME280;28505;56.970;40.998;2023-03-22T02:16:05;99417.56;;;0.23;100.00
42859;BME280;28505;56.970;40.998;2023-03-22T02:22:20;99421.06;;;0.12;100.00
42859;BME280;28505;56.970;40.998;2023-03-22T02:45:00;99448.47;;;-0.23;100.00
42859;BME280;28505;56.970;40.998;2023-03-22T02:51:16;99453.78;;;-0.23;100.00
42859;BME280;28505;56.970;40.998;2023-03-22T02:56:33;99450.34;;;-0.24;100.00
42859;BME280;28505;56.970;40.998;2023-03-22T03:09:46;99470.50;;;-0.22;100.00
42859;BME280;28505;56.970;40.998;2023-03-22T03:15:17;99459.66;;;-0.21;100.00
42859;BME280;28505;56.970;40.998;2023-03-22T03:20:57;99466.56;;;-0.20;100.00
42859;BME280;28505;56.970;40.998;2023-03-22T03:37:40;99481.31;;;-0.12;100.00
42859;BME280;28505;56.970;40.998;2023-03-22T03:43:04;99494.88;;;-0.09;100.00
42859;BME280;28505;56.970;40.998;2023-03-22T03:48:29;99501.91;;;-0.03;100.00
42859;BME280;28505;56.970;40.998;2023-03-22T03:53:52;99503.16;;;-0.05;100.00
42859;BME280;28505;56.970;40.998;2023-03-22T03:59:16;99506.94;;;-0.01;100.00
42859;BME280;28505;56.970;40.998;2023-03-22T04:04:42;99529.06;;;0.05;100.00
42859;BME280;28505;56.970;40.998;2023-03-22T04:10:06;99530.59;;;0.01;100.00
42859;BME280;28505;56.970;40.998;2023-03-22T04:15:28;99542.31;;;0.05;100.00
42859;BME280;28505;56.970;40.998;2023-03-22T04:20:54;99557.97;;;0.18;100.00
42859;BME280;28505;56.970;40.998;2023-03-22T04:26:20;99569.22;;;0.25;100.00
42859;BME280;28505;56.970;40.998;2023-03-22T04:31:59;99567.63;;;0.24;100.00
42859;BME280;28505;56.970;40.998;2023-03-22T04:37:29;99562.22;;;0.19;100.00
42859;BME280;28505;56.970;40.998;2023-03-22T04:43:05;99566.50;;;0.20;100.00
42859;BME280;28505;56.970;40.998;2023-03-22T04:49:00;99587.19;;;0.35;100.00
42859;BME280;28505;56.970;40.998;2023-03-22T04:54:30;99559.88;;;0.22;100.00
42859;BME280;28505;56.970;40.998;2023-03-22T04:59:54;99558.06;;;0.23;100.00
42859;BME280;28505;56.970;40.998;2023-03-22T05:05:17;99576.97;;;0.27;100.00
42859;BME280;28505;56.970;40.998;2023-03-22T05:10:41;99571.94;;;0.13;100.00
42859;BME280;28505;56.970;40.998;2023-03-22T05:16:04;99617.56;;;0.56;100.00
42859;BME280;28505;56.970;40.998;2023-03-22T05:21:37;99623.44;;;0.86;100.00
42859;BME280;28505;56.970;40.998;2023-03-22T05:27:01;99631.31;;;1.10;100.00
42859;BME280;28505;56.970;40.998;2023-03-22T05:32:27;99607.25;;;1.16;100.00
42859;BME280;28505;56.970;40.998;2023-03-22T05:37:51;99643.31;;;1.46;100.00
42859;BME280;28505;56.970;40.998;2023-03-22T05:43:15;99645.03;;;1.52;100.00
42859;BME280;28505;56.970;40.998;2023-03-22T05:48:42;99644.81;;;1.54;100.00
42859;BME280;28505;56.970;40.998;2023-03-22T05:54:05;99616.69;;;1.41;100.00
42859;BME280;28505;56.970;40.998;2023-03-22T05:59:34;99632.16;;;1.61;100.00
42859;BME280;28505;56.970;40.998;2023-03-22T06:05:17;99643.00;;;1.93;100.00
42859;BME280;28505;56.970;40.998;2023-03-22T06:11:26;99662.41;;;1.94;100.00
42859;BME280;28505;56.970;40.998;2023-03-22T06:17:20;99637.31;;;1.51;100.00
42859;BME280;28505;56.970;40.998;2023-03-22T06:22:51;99654.84;;;1.52;100.00
42859;BME280;28505;56.970;40.998;2023-03-22T06:29:01;99641.47;;;1.47;100.00
42859;BME280;28505;56.970;40.998;2023-03-22T06:34:26;99669.81;;;1.92;100.00
42859;BME280;28505;56.970;40.998;2023-03-22T06:39:49;99668.50;;;2.11;100.00
42859;BME280;28505;56.970;40.998;2023-03-22T06:45:17;99660.19;;;2.46;100.00
42859;BME280;28505;56.970;40.998;2023-03-22T06:50:45;99647.44;;;2.70;100.00
42859;BME280;28505;56.970;40.998;2023-03-22T06:56:18;99661.53;;;2.93;100.00
42859;BME280;28505;56.970;40.998;2023-03-22T07:01:46;99682.72;;;3.04;100.00
42859;BME280;28505;56.970;40.998;2023-03-22T07:07:09;99686.41;;;3.03;100.00
42859;BME280;28505;56.970;40.998;2023-03-22T07:12:32;99691.34;;;3.17;100.00
42859;BME280;28505;56.970;40.998;2023-03-22T07:18:00;99701.09;;;3.33;100.00
42859;BME280;28505;56.970;40.998;2023-03-22T07:23:26;99688.84;;;3.32;100.00
42859;BME280;28505;56.970;40.998;2023-03-22T07:28:55;99669.63;;;3.30;100.00
42859;BME280;28505;56.970;40.998;2023-03-22T07:34:22;99708.53;;;3.58;100.00
42859;BME280;28505;56.970;40.998;2023-03-22T07:39:59;99696.69;;;3.44;100.00
42859;BME280;28505;56.970;40.998;2023-03-22T07:45:25;99717.03;;;3.55;100.00
42859;BME280;28505;56.970;40.998;2023-03-22T07:51:16;99713.81;;;3.53;100.00
42859;BME280;28505;56.970;40.998;2023-03-22T07:56:40;99717.13;;;3.65;100.00
42859;BME280;28505;56.970;40.998;2023-03-22T08:02:04;99719.34;;;3.73;100.00
42859;BME280;28505;56.970;40.998;2023-03-22T08:07:35;99720.50;;;3.83;100.00
42859;BME280;28505;56.970;40.998;2023-03-22T08:12:58;99722.47;;;3.65;100.00
42859;BME280;28505;56.970;40.998;2023-03-22T08:18:20;99698.78;;;3.42;100.00
42859;BME280;28505;56.970;40.998;2023-03-22T08:23:42;99718.63;;;3.56;100.00
42859;BME280;28505;56.970;40.998;2023-03-22T08:29:04;99731.44;;;3.54;100.00
42859;BME280;28505;56.970;40.998;2023-03-22T08:34:29;99732.03;;;3.61;100.00
42859;BME280;28505;56.970;40.998;2023-03-22T08:39:51;99719.25;;;3.63;100.00
42859;BME280;28505;56.970;40.998;2023-03-22T08:45:18;99732.69;;;3.73;100.00
42859;BME280;28505;56.970;40.998;2023-03-22T08:50:49;99735.22;;;3.90;100.00
42859;BME280;28505;56.970;40.998;2023-03-22T08:56:25;99720.56;;;3.93;100.00
42859;BME280;28505;56.970;40.998;2023-03-22T09:03:00;99713.31;;;3.88;95.14
42859;BME280;28505;56.970;40.998;2023-03-22T09:15:37;99715.25;;;3.98;90.64
42859;BME280;28505;56.970;40.998;2023-03-22T09:21:11;99714.22;;;3.99;89.33
42859;BME280;28505;56.970;40.998;2023-03-22T09:27:05;99742.69;;;4.31;86.53
42859;BME280;28505;56.970;40.998;2023-03-22T09:40:17;99731.53;;;4.34;87.56
42859;BME280;28505;56.970;40.998;2023-03-22T09:45:49;99728.28;;;4.27;84.08
42859;BME280;28505;56.970;40.998;2023-03-22T09:57:32;99744.69;;;4.51;85.34
42859;BME280;28505;56.970;40.998;2023-03-22T10:15:08;99715.50;;;4.34;82.57
42859;BME280;28505;56.970;40.998;2023-03-22T10:20:48;99721.94;;;4.38;79.85
42859;BME280;28505;56.970;40.998;2023-03-22T10:26:37;99738.81;;;4.49;80.60
42859;BME280;28505;56.970;40.998;2023-03-22T10:32:16;99756.50;;;4.60;75.75
42859;BME280;28505;56.970;40.998;2023-03-22T10:37:39;99755.16;;;4.57;77.85
42859;BME280;28505;56.970;40.998;2023-03-22T10:43:21;99739.81;;;4.37;75.27
42859;BME280;28505;56.970;40.998;2023-03-22T10:48:46;99762.06;;;4.48;76.25
42859;BME280;28505;56.970;40.998;2023-03-22T10:54:14;99705.78;;;4.17;76.28
42859;BME280;28505;56.970;40.998;2023-03-22T10:59:47;99740.59;;;4.38;75.25
42859;BME280;28505;56.970;40.998;2023-03-22T11:05:34;99740.38;;;4.44;75.72
42859;BME280;28505;56.970;40.998;2023-03-22T11:10:59;99746.09;;;4.58;75.97
42859;BME280;28505;56.970;40.998;2023-03-22T11:16:23;99729.28;;;4.63;75.03
42859;BME280;28505;56.970;40.998;2023-03-22T11:21:50;99728.22;;;4.64;72.82
42859;BME280;28505;56.970;40.998;2023-03-22T11:27:28;99748.34;;;4.82;73.85
42859;BME280;28505;56.970;40.998;2023-03-22T11:38:38;99749.38;;;4.76;74.87
42859;BME280;28505;56.970;40.998;2023-03-22T11:44:04;99745.63;;;4.77;73.96
42859;BME280;28505;56.970;40.998;2023-03-22T11:55:12;99739.44;;;4.66;71.69
42859;BME280;28505;56.970;40.998;2023-03-22T12:00:36;99754.72;;;4.76;72.13
42859;BME280;28505;56.970;40.998;2023-03-22T12:06:03;99749.38;;;4.76;71.75
42859;BME280;28505;56.970;40.998;2023-03-22T12:11:36;99767.88;;;4.92;70.03
42859;BME280;28505;56.970;40.998;2023-03-22T12:17:20;99771.06;;;4.89;67.56
42859;BME280;28505;56.970;40.998;2023-03-22T12:22:49;99762.00;;;4.90;66.57
42859;BME280;28505;56.970;40.998;2023-03-22T12:28:17;99760.94;;;4.91;64.66
42859;BME280;28505;56.970;40.998;2023-03-22T12:33:47;99760.13;;;4.91;65.97
42859;BME280;28505;56.970;40.998;2023-03-22T12:39:41;99768.69;;;4.93;67.46
42859;BME280;28505;56.970;40.998;2023-03-22T12:45:04;99753.44;;;4.88;66.85
42859;BME280;28505;56.970;40.998;2023-03-22T12:50:37;99757.22;;;4.98;67.02
42859;BME280;28505;56.970;40.998;2023-03-22T12:56:03;99751.09;;;4.97;66.68
42859;BME280;28505;56.970;40.998;2023-03-22T13:07:13;99755.06;;;4.95;66.99
42859;BME280;28505;56.970;40.998;2023-03-22T13:12:36;99762.28;;;4.94;68.35
42859;BME280;28505;56.970;40.998;2023-03-22T13:18:01;99741.44;;;4.91;68.50
42859;BME280;28505;56.970;40.998;2023-03-22T13:23:26;99744.13;;;4.96;69.37
42859;BME280;28505;56.970;40.998;2023-03-22T13:28:56;99761.22;;;5.00;71.05
42859;BME280;28505;56.970;40.998;2023-03-22T13:34:30;99769.28;;;5.05;69.56
42859;BME280;28505;56.970;40.998;2023-03-22T13:39:53;99750.03;;;5.03;68.82
42859;BME280;28505;56.970;40.998;2023-03-22T13:45:32;99753.75;;;5.02;69.01
42859;BME280;28505;56.970;40.998;2023-03-22T13:50:54;99755.34;;;4.98;70.30
42859;BME280;28505;56.970;40.998;2023-03-22T13:57:13;99761.50;;;4.99;71.59
42859;BME280;28505;56.970;40.998;2023-03-22T14:02:20;99732.03;;;4.83;71.65
42859;BME280;28505;56.970;40.998;2023-03-22T14:13:26;99758.59;;;5.05;71.04
42859;BME280;28505;56.970;40.998;2023-03-22T14:18:50;99733.41;;;4.86;69.31
42859;BME280;28505;56.970;40.998;2023-03-22T14:24:15;99752.13;;;4.96;69.86
42859;BME280;28505;56.970;40.998;2023-03-22T14:29:42;99751.06;;;4.92;70.88
42859;BME280;28505;56.970;40.998;2023-03-22T14:35:27;99756.59;;;4.80;72.03
42859;BME280;28505;56.970;40.998;2023-03-22T14:41:20;99762.41;;;4.67;72.20
42859;BME280;28505;56.970;40.998;2023-03-22T14:46:42;99752.41;;;4.47;72.43
42859;BME280;28505;56.970;40.998;2023-03-22T14:52:03;99757.25;;;4.50;73.01
42859;BME280;28505;56.970;40.998;2023-03-22T14:57:33;99755.06;;;4.42;73.90
42859;BME280;28505;56.970;40.998;2023-03-22T15:02:58;99749.06;;;4.25;75.18
42859;BME280;28505;56.970;40.998;2023-03-22T15:08:21;99760.22;;;4.16;75.05
42859;BME280;28505;56.970;40.998;2023-03-22T15:13:45;99763.53;;;3.96;76.41
42859;BME280;28505;56.970;40.998;2023-03-22T15:19:11;99764.41;;;3.75;78.13
42859;BME280;28505;56.970;40.998;2023-03-22T15:24:36;99762.31;;;3.50;79.35
42859;BME280;28505;56.970;40.998;2023-03-22T15:29:59;99758.13;;;3.32;80.64
42859;BME280;28505;56.970;40.998;2023-03-22T15:35:20;99759.81;;;3.16;81.64
42859;BME280;28505;56.970;40.998;2023-03-22T15:40:42;99768.06;;;3.15;82.01
42859;BME280;28505;56.970;40.998;2023-03-22T15:51:33;99768.53;;;2.90;83.53
42859;BME280;28505;56.970;40.998;2023-03-22T15:57:07;99763.44;;;2.66;83.56
42859;BME280;28505;56.970;40.998;2023-03-22T16:02:31;99771.91;;;2.63;83.58
42859;BME280;28505;56.970;40.998;2023-03-22T16:07:51;99774.56;;;2.63;83.16
42859;BME280;28505;56.970;40.998;2023-03-22T16:13:21;99762.91;;;2.47;83.29
42859;BME280;28505;56.970;40.998;2023-03-22T16:18:43;99763.56;;;2.38;83.29
42859;BME280;28505;56.970;40.998;2023-03-22T16:24:05;99788.47;;;2.31;85.06
42859;BME280;28505;56.970;40.998;2023-03-22T16:29:55;99776.00;;;2.15;86.42
42859;BME280;28505;56.970;40.998;2023-03-22T16:35:22;99795.34;;;2.10;87.47
42859;BME280;28505;56.970;40.998;2023-03-22T16:40:46;99785.81;;;1.98;88.04
42859;BME280;28505;56.970;40.998;2023-03-22T16:46:10;99776.63;;;1.88;87.41
42859;BME280;28505;56.970;40.998;2023-03-22T16:51:34;99770.75;;;1.86;88.37
42859;BME280;28505;56.970;40.998;2023-03-22T16:56:56;99740.06;;;1.33;89.07
42859;BME280;28505;56.970;40.998;2023-03-22T17:02:23;99758.25;;;1.13;92.84
42859;BME280;28505;56.970;40.998;2023-03-22T17:07:48;99778.97;;;0.99;95.69
42859;BME280;28505;56.970;40.998;2023-03-22T17:13:12;99750.97;;;0.68;98.17
42859;BME280;28505;56.970;40.998;2023-03-22T17:18:36;99760.31;;;0.82;96.33
42859;BME280;28505;56.970;40.998;2023-03-22T17:23:57;99766.97;;;0.97;93.39
42859;BME280;28505;56.970;40.998;2023-03-22T17:29:18;99787.25;;;1.14;91.62
42859;BME280;28505;56.970;40.998;2023-03-22T17:34:40;99772.25;;;1.08;91.78
42859;BME280;28505;56.970;40.998;2023-03-22T17:40:01;99748.19;;;0.86;92.06
42859;BME280;28505;56.970;40.998;2023-03-22T17:45:27;99769.28;;;0.93;91.12
42859;BME280;28505;56.970;40.998;2023-03-22T17:50:52;99775.50;;;0.99;91.12
42859;BME280;28505;56.970;40.998;2023-03-22T17:56:13;99755.00;;;0.82;89.72
42859;BME280;28505;56.970;40.998;2023-03-22T18:01:33;99767.34;;;0.88;89.41
42859;BME280;28505;56.970;40.998;2023-03-22T18:06:54;99746.25;;;0.70;89.80
42859;BME280;28505;56.970;40.998;2023-03-22T18:12:14;99775.66;;;0.80;90.53
42859;BME280;28505;56.970;40.998;2023-03-22T18:17:35;99760.44;;;0.76;90.74
42859;BME280;28505;56.970;40.998;2023-03-22T18:22:55;99747.75;;;0.66;91.11
42859;BME280;28505;56.970;40.998;2023-03-22T18:28:16;99752.16;;;0.60;90.41
42859;BME280;28505;56.970;40.998;2023-03-22T18:33:37;99755.13;;;0.64;90.43
42859;BME280;28505;56.970;40.998;2023-03-22T18:38:59;99753.66;;;0.56;90.15
42859;BME280;28505;56.970;40.998;2023-03-22T18:44:21;99770.25;;;0.63;89.54
42859;BME280;28505;56.970;40.998;2023-03-22T18:49:42;99762.88;;;0.65;88.22
42859;BME280;28505;56.970;40.998;2023-03-22T18:55:04;99767.59;;;0.63;88.52
42859;BME280;28505;56.970;40.998;2023-03-22T19:00:25;99743.63;;;0.46;88.86
42859;BME280;28505;56.970;40.998;2023-03-22T19:05:47;99763.94;;;0.53;89.38
42859;BME280;28505;56.970;40.998;2023-03-22T19:11:08;99745.94;;;0.43;90.10
42859;BME280;28505;56.970;40.998;2023-03-22T19:16:29;99753.91;;;0.43;90.86
42859;BME280;28505;56.970;40.998;2023-03-22T19:21:50;99757.69;;;0.35;90.81
42859;BME280;28505;56.970;40.998;2023-03-22T19:27:10;99771.88;;;0.41;92.11
42859;BME280;28505;56.970;40.998;2023-03-22T19:32:31;99748.59;;;0.31;93.24
42859;BME280;28505;56.970;40.998;2023-03-22T19:37:52;99742.25;;;0.32;93.23
42859;BME280;28505;56.970;40.998;2023-03-22T19:43:13;99756.75;;;0.41;94.20
42859;BME280;28505;56.970;40.998;2023-03-22T19:48:36;99730.47;;;0.28;95.45
42859;BME280;28505;56.970;40.998;2023-03-22T19:53:58;99715.97;;;0.19;96.32
42859;BME280;28505;56.970;40.998;2023-03-22T19:59:19;99745.72;;;0.33;97.34
42859;BME280;28505;56.970;40.998;2023-03-22T20:12:25;99744.34;;;0.30;99.31
42859;BME280;28505;56.970;40.998;2023-03-22T20:17:46;99744.34;;;0.30;100.00
42859;BME280;28505;56.970;40.998;2023-03-22T20:23:10;99739.03;;;0.30;100.00
42859;BME280;28505;56.970;40.998;2023-03-22T20:28:32;99736.84;;;0.27;100.00
42859;BME280;28505;56.970;40.998;2023-03-22T20:33:53;99727.38;;;0.19;100.00
42859;BME280;28505;56.970;40.998;2023-03-22T20:39:14;99731.66;;;0.20;100.00
42859;BME280;28505;56.970;40.998;2023-03-22T20:44:35;99740.88;;;0.18;100.00
42859;BME280;28505;56.970;40.998;2023-03-22T20:49:57;99728.06;;;0.15;100.00
42859;BME280;28505;56.970;40.998;2023-03-22T20:55:18;99711.47;;;0.08;100.00
42859;BME280;28505;56.970;40.998;2023-03-22T21:00:39;99703.41;;;0.03;100.00
42859;BME280;28505;56.970;40.998;2023-03-22T21:06:08;99707.69;;;0.04;100.00
42859;BME280;28505;56.970;40.998;2023-03-22T21:11:29;99705.34;;;-0.05;100.00
42859;BME280;28505;56.970;40.998;2023-03-22T21:16:50;99697.16;;;-0.15;100.00
42859;BME280;28505;56.970;40.998;2023-03-22T21:22:11;99699.38;;;-0.12;100.00
42859;BME280;28505;56.970;40.998;2023-03-22T21:27:33;99699.47;;;-0.07;100.00
42859;BME280;28505;56.970;40.998;2023-03-22T21:32:54;99704.44;;;0.02;100.00
42859;BME280;28505;56.970;40.998;2023-03-22T21:38:15;99699.13;;;0.02;100.00
42859;BME280;28505;56.970;40.998;2023-03-22T21:43:37;99701.00;;;0.01;100.00
42859;BME280;28505;56.970;40.998;2023-03-22T21:48:58;99696.00;;;-0.07;100.00
42859;BME280;28505;56.970;40.998;2023-03-22T21:54:23;99699.56;;;-0.13;100.00
42859;BME280;28505;56.970;40.998;2023-03-22T21:59:45;99684.06;;;-0.10;100.00
42859;BME280;28505;56.970;40.998;2023-03-22T22:05:09;99667.22;;;-0.15;100.00
42859;BME280;28505;56.970;40.998;2023-03-22T22:10:32;99685.88;;;0.02;100.00
42859;BME280;28505;56.970;40.998;2023-03-22T22:15:59;99681.97;;;0.04;100.00
42859;BME280;28505;56.970;40.998;2023-03-22T22:21:21;99660.44;;;0.01;100.00
42859;BME280;28505;56.970;40.998;2023-03-22T22:26:48;99663.19;;;0.06;100.00
42859;BME280;28505;56.970;40.998;2023-03-22T22:32:09;99665.63;;;0.07;100.00
42859;BME280;28505;56.970;40.998;2023-03-22T22:37:30;99668.28;;;0.07;100.00
42859;BME280;28505;56.970;40.998;2023-03-22T22:42:51;99666.75;;;-0.01;100.00
42859;BME280;28505;56.970;40.998;2023-03-22T22:48:12;99659.03;;;-0.02;100.00
42859;BME280;28505;56.970;40.998;2023-03-22T22:53:38;99683.81;;;0.15;100.00
42859;BME280;28505;56.970;40.998;2023-03-22T22:59:00;99672.28;;;0.10;100.00
42859;BME280;28505;56.970;40.998;2023-03-22T23:04:21;99676.09;;;0.14;100.00
42859;BME280;28505;56.970;40.998;2023-03-22T23:09:42;99664.00;;;0.18;100.00
42859;BME280;28505;56.970;40.998;2023-03-22T23:15:05;99666.50;;;0.25;100.00
42859;BME280;28505;56.970;40.998;2023-03-22T23:20:27;99660.41;;;0.24;100.00
42859;BME280;28505;56.970;40.998;2023-03-22T23:25:49;99664.00;;;0.30;100.00
42859;BME280;28505;56.970;40.998;2023-03-22T23:31:16;99653.00;;;0.26;100.00
42859;BME280;28505;56.970;40.998;2023-03-22T23:36:37;99659.47;;;0.30;100.00
42859;BME280;28505;56.970;40.998;2023-03-22T23:42:03;99667.19;;;0.32;100.00
42859;BME280;28505;56.970;40.998;2023-03-22T23:47:25;99666.38;;;0.31;100.00
42859;BME280;28505;56.970;40.998;2023-03-22T23:52:47;99661.88;;;0.32;100.00
42859;BME280;28505;56.970;40.998;2023-03-22T23:58:08;99653.38;;;0.30;100.00
